Toyomasa Maru — JJ3927 — position and weather

sailwx.info

Track history (hours):
 
Tides and Currents Weather Stations Pressure Air Temp Water Temp Dewpoint Dewpoint Depression Visibility Wind Speed Wind Dir Waves Ship Positions

Toyomasa Maru

Last reported at 2016-May-28 19:30 UTC. Time now 2016-May-28 19:43 UTC.
Position N 35°35' E 140°03'.

Length 101 m; draft 6.6 m.

Type: Tanker. MMSI: 431300401.

Date/timePositionNaut miles runAvg speedWind from/ knotsBaromVisibWave heightAir tempDewpointWater temp
2016-May-28 19:30N 35°35' E 140°03'0 0.0
2016-May-28 18:12N 35°35' E 140°03'0 0.0
2016-May-28 17:24N 35°35' E 140°03'0 0.1
2016-May-28 16:30N 35°35' E 140°03'0 0.0
2016-May-28 15:24N 35°35' E 140°03'0 0.0
2016-May-28 14:30N 35°35' E 140°03'0 0.0
2016-May-28 13:30N 35°35' E 140°03'0 0.0
2016-May-28 12:30N 35°35' E 140°03'0 0.0
2016-May-28 11:30N 35°35' E 140°03'8 8.4
2016-May-28 10:33N 35°31' E 139°55'1312.8
2016-May-28 09:33N 35°21' E 139°45'1212.3
2016-May-28 08:33N 35°09' E 139°46'6812.5
2016-May-28 03:07N 34°32' E 138°36'1 0.0
2016-May-26 19:28N 34°33' E 138°36'6312.4
2016-May-26 14:23N 35°06' E 139°41'1012.3
2016-May-26 13:33N 35°15' E 139°46'1110.6
2016-May-26 12:33N 35°25' E 139°45'1313.4
2016-May-26 11:34N 35°33' E 139°58'6 5.8
2016-May-26 10:31N 35°36' E 140°05'0 0.0
2016-May-26 09:31N 35°36' E 140°05'0 0.0
2016-May-26 08:31N 35°36' E 140°05'0 0.0
2016-May-26 07:31N 35°36' E 140°05'0 0.0
2016-May-26 06:31N 35°36' E 140°05'0 0.0
2016-May-26 05:31N 35°36' E 140°05'5 5.3
2016-May-26 04:34N 35°34' E 139°59'1312.9
2016-May-26 03:33N 35°25' E 139°47'1111.4
2016-May-26 02:33N 35°14' E 139°47'1312.8
2016-May-26 01:33N 35°02' E 139°41'1413.7
2016-May-26 00:30N 34°53' E 139°27'56 1.7
2016-May-24 16:21N 34°32' E 138°24'4812.7
2016-May-24 12:32N 34°49' E 139°19'1313.0
2016-May-24 11:33N 34°58' E 139°31'1313.0
2016-May-24 10:33N 35°07' E 139°42'1111.4
2016-May-24 09:33N 35°18' E 139°44'1010.4
2016-May-24 08:33N 35°28' E 139°49'1312.8
2016-May-24 07:33N 35°35' E 140°02'3 2.5
2016-May-24 06:29N 35°36' E 140°05'0 0.0
2016-May-24 05:29N 35°36' E 140°05'0 0.0
2016-May-24 04:32N 35°36' E 140°05'0 0.0
2016-May-24 03:32N 35°36' E 140°05'0 0.0
2016-May-24 02:32N 35°36' E 140°05'0 0.0
2016-May-24 01:32N 35°36' E 140°05'3 3.5
2016-May-24 00:33N 35°34' E 140°01'1312.6
2016-May-23 23:33N 35°26' E 139°49'1110.5
2016-May-23 22:32N 35°16' E 139°47'1212.0
2016-May-23 21:33N 35°04' E 139°44'1313.1
2016-May-23 20:33N 34°56' E 139°31'1513.5
2016-May-23 19:27N 34°47' E 139°17'1213.0
2016-May-23 18:32N 34°39' E 139°05'43 1.3
2016-May-22 09:33N 35°08' E 139°43'1211.8
2016-May-22 08:33N 35°20' E 139°43'1312.6
2016-May-22 07:34N 35°30' E 139°52'1212.2
2016-May-22 06:33N 35°36' E 140°05'0 0.0
2016-May-22 05:32N 35°36' E 140°05'0 0.0
2016-May-22 04:26N 35°36' E 140°05'0 0.0
2016-May-22 03:32N 35°36' E 140°05'0 0.0
2016-May-22 02:32N 35°36' E 140°05'0 0.0
2016-May-22 01:32N 35°36' E 140°05'5 4.7
2016-May-22 00:33N 35°34' E 139°60'1212.1
2016-May-21 23:33N 35°26' E 139°48'1010.2
2016-May-21 22:33N 35°16' E 139°46'1211.9
2016-May-21 21:33N 35°04' E 139°44'6412.4
2016-May-21 16:23N 34°32' E 138°37'  
Track history (hours):
 
Tides and Currents Weather Stations Pressure Air Temp Water Temp Dewpoint Dewpoint Depression Visibility Wind Speed Wind Dir Waves Ship Positions

Toyomasa Maru

Last reported at 2016-May-28 19:30 UTC. Time now 2016-May-28 19:43 UTC.
Position N 35°35' E 140°03'.

Length 101 m; draft 6.6 m.

Type: Tanker. MMSI: 431300401.

Date/timePositionNaut miles runAvg speedWind from/ knotsBaromVisibWave heightAir tempDewpointWater temp
2016-May-28 19:30N 35°35' E 140°03'0 0.0
2016-May-28 18:12N 35°35' E 140°03'0 0.0
2016-May-28 17:24N 35°35' E 140°03'0 0.1
2016-May-28 16:30N 35°35' E 140°03'0 0.0
2016-May-28 15:24N 35°35' E 140°03'0 0.0
2016-May-28 14:30N 35°35' E 140°03'0 0.0
2016-May-28 13:30N 35°35' E 140°03'0 0.0
2016-May-28 12:30N 35°35' E 140°03'0 0.0
2016-May-28 11:30N 35°35' E 140°03'8 8.4
2016-May-28 10:33N 35°31' E 139°55'1312.8
2016-May-28 09:33N 35°21' E 139°45'1212.3
2016-May-28 08:33N 35°09' E 139°46'6812.5
2016-May-28 03:07N 34°32' E 138°36'1 0.0
2016-May-26 19:28N 34°33' E 138°36'6312.4
2016-May-26 14:23N 35°06' E 139°41'1012.3
2016-May-26 13:33N 35°15' E 139°46'1110.6
2016-May-26 12:33N 35°25' E 139°45'1313.4
2016-May-26 11:34N 35°33' E 139°58'6 5.8
2016-May-26 10:31N 35°36' E 140°05'0 0.0
2016-May-26 09:31N 35°36' E 140°05'0 0.0
2016-May-26 08:31N 35°36' E 140°05'0 0.0
2016-May-26 07:31N 35°36' E 140°05'0 0.0
2016-May-26 06:31N 35°36' E 140°05'0 0.0
2016-May-26 05:31N 35°36' E 140°05'5 5.3
2016-May-26 04:34N 35°34' E 139°59'1312.9
2016-May-26 03:33N 35°25' E 139°47'1111.4
2016-May-26 02:33N 35°14' E 139°47'1312.8
2016-May-26 01:33N 35°02' E 139°41'1413.7
2016-May-26 00:30N 34°53' E 139°27'56 1.7
2016-May-24 16:21N 34°32' E 138°24'4812.7
2016-May-24 12:32N 34°49' E 139°19'1313.0
2016-May-24 11:33N 34°58' E 139°31'1313.0
2016-May-24 10:33N 35°07' E 139°42'1111.4
2016-May-24 09:33N 35°18' E 139°44'1010.4
2016-May-24 08:33N 35°28' E 139°49'1312.8
2016-May-24 07:33N 35°35' E 140°02'3 2.5
2016-May-24 06:29N 35°36' E 140°05'0 0.0
2016-May-24 05:29N 35°36' E 140°05'0 0.0
2016-May-24 04:32N 35°36' E 140°05'0 0.0
2016-May-24 03:32N 35°36' E 140°05'0 0.0
2016-May-24 02:32N 35°36' E 140°05'0 0.0
2016-May-24 01:32N 35°36' E 140°05'3 3.5
2016-May-24 00:33N 35°34' E 140°01'1312.6
2016-May-23 23:33N 35°26' E 139°49'1110.5
2016-May-23 22:32N 35°16' E 139°47'1212.0
2016-May-23 21:33N 35°04' E 139°44'1313.1
2016-May-23 20:33N 34°56' E 139°31'1513.5
2016-May-23 19:27N 34°47' E 139°17'1213.0
2016-May-23 18:32N 34°39' E 139°05'43 1.3
2016-May-22 09:33N 35°08' E 139°43'1211.8
2016-May-22 08:33N 35°20' E 139°43'1312.6
2016-May-22 07:34N 35°30' E 139°52'1212.2
2016-May-22 06:33N 35°36' E 140°05'0 0.0
2016-May-22 05:32N 35°36' E 140°05'0 0.0
2016-May-22 04:26N 35°36' E 140°05'0 0.0
2016-May-22 03:32N 35°36' E 140°05'0 0.0
2016-May-22 02:32N 35°36' E 140°05'0 0.0
2016-May-22 01:32N 35°36' E 140°05'5 4.7
2016-May-22 00:33N 35°34' E 139°60'1212.1
2016-May-21 23:33N 35°26' E 139°48'1010.2
2016-May-21 22:33N 35°16' E 139°46'1211.9
2016-May-21 21:33N 35°04' E 139°44'6412.4
2016-May-21 16:23N 34°32' E 138°37'  

Dump ship's entire track history